sensor_id;sensor_type;location;lat;lon;timestamp;temperature;humidity
20376;DHT22;10347;51.828;6.466;2022-11-20T00:01:12;2.20;99.90
20376;DHT22;10347;51.828;6.466;2022-11-20T00:03:38;2.30;99.90
20376;DHT22;10347;51.828;6.466;2022-11-20T00:06:09;2.30;99.90
20376;DHT22;10347;51.828;6.466;2022-11-20T00:08:35;2.30;99.90
20376;DHT22;10347;51.828;6.466;2022-11-20T00:11:12;2.30;99.90
20376;DHT22;10347;51.828;6.466;2022-11-20T00:13:38;2.20;99.90
20376;DHT22;10347;51.828;6.466;2022-11-20T00:16:06;2.10;99.90
20376;DHT22;10347;51.828;6.466;2022-11-20T00:18:33;2.10;99.90
20376;DHT22;10347;51.828;6.466;2022-11-20T00:21:23;2.10;99.90
20376;DHT22;10347;51.828;6.466;2022-11-20T00:23:50;2.10;99.90
20376;DHT22;10347;51.828;6.466;2022-11-20T00:26:18;2.10;99.90
20376;DHT22;10347;51.828;6.466;2022-11-20T00:28:55;2.10;99.90
20376;DHT22;10347;51.828;6.466;2022-11-20T00:31:21;2.20;99.90
20376;DHT22;10347;51.828;6.466;2022-11-20T00:33:46;2.10;99.90
20376;DHT22;10347;51.828;6.466;2022-11-20T00:36:17;2.10;99.90
20376;DHT22;10347;51.828;6.466;2022-11-20T00:38:43;2.10;99.90
20376;DHT22;10347;51.828;6.466;2022-11-20T00:41:12;2.10;99.90
20376;DHT22;10347;51.828;6.466;2022-11-20T00:43:38;2.10;99.90
20376;DHT22;10347;51.828;6.466;2022-11-20T00:46:09;2.00;99.90
20376;DHT22;10347;51.828;6.466;2022-11-20T00:48:35;2.00;99.90
20376;DHT22;10347;51.828;6.466;2022-11-20T00:51:01;2.00;99.90
20376;DHT22;10347;51.828;6.466;2022-11-20T00:53:27;2.10;99.90
20376;DHT22;10347;51.828;6.466;2022-11-20T00:55:54;2.00;99.90
20376;DHT22;10347;51.828;6.466;2022-11-20T00:58:21;2.00;99.90
20376;DHT22;10347;51.828;6.466;2022-11-20T01:00:47;2.00;99.90
20376;DHT22;10347;51.828;6.466;2022-11-20T01:03:12;2.00;99.90
20376;DHT22;10347;51.828;6.466;2022-11-20T01:05:38;2.00;99.90
20376;DHT22;10347;51.828;6.466;2022-11-20T01:08:04;2.00;99.90
20376;DHT22;10347;51.828;6.466;2022-11-20T01:10:29;2.00;99.90
20376;DHT22;10347;51.828;6.466;2022-11-20T01:12:55;2.00;99.90
20376;DHT22;10347;51.828;6.466;2022-11-20T01:15:39;2.00;99.90
20376;DHT22;10347;51.828;6.466;2022-11-20T01:18:05;1.90;99.90
20376;DHT22;10347;51.828;6.466;2022-11-20T01:20:34;1.90;99.90
20376;DHT22;10347;51.828;6.466;2022-11-20T01:23:01;1.90;99.90
20376;DHT22;10347;51.828;6.466;2022-11-20T01:25:27;1.90;99.90
20376;DHT22;10347;51.828;6.466;2022-11-20T01:27:52;1.80;99.90
20376;DHT22;10347;51.828;6.466;2022-11-20T01:30:18;1.80;99.90
20376;DHT22;10347;51.828;6.466;2022-11-20T01:32:43;1.90;99.90
20376;DHT22;10347;51.828;6.466;2022-11-20T01:35:09;1.80;99.90
20376;DHT22;10347;51.828;6.466;2022-11-20T01:37:35;1.80;99.90
20376;DHT22;10347;51.828;6.466;2022-11-20T01:40:01;1.80;99.90
20376;DHT22;10347;51.828;6.466;2022-11-20T01:42:27;1.80;99.90
20376;DHT22;10347;51.828;6.466;2022-11-20T01:48:14;1.80;99.90
20376;DHT22;10347;51.828;6.466;2022-11-20T01:50:41;1.80;99.90
20376;DHT22;10347;51.828;6.466;2022-11-20T01:53:15;1.70;99.90
20376;DHT22;10347;51.828;6.466;2022-11-20T01:55:45;1.70;99.90
20376;DHT22;10347;51.828;6.466;2022-11-20T01:58:13;1.70;99.90
20376;DHT22;10347;51.828;6.466;2022-11-20T02:00:40;1.70;99.90
20376;DHT22;10347;51.828;6.466;2022-11-20T02:03:12;1.70;99.90
20376;DHT22;10347;51.828;6.466;2022-11-20T02:08:09;1.70;99.90
20376;DHT22;10347;51.828;6.466;2022-11-20T02:10:34;1.60;99.90
20376;DHT22;10347;51.828;6.466;2022-11-20T02:13:00;1.60;99.90
20376;DHT22;10347;51.828;6.466;2022-11-20T02:15:45;1.50;99.90
20376;DHT22;10347;51.828;6.466;2022-11-20T02:18:11;1.40;99.90
20376;DHT22;10347;51.828;6.466;2022-11-20T02:20:41;1.40;99.90
20376;DHT22;10347;51.828;6.466;2022-11-20T02:23:12;1.40;99.90
20376;DHT22;10347;51.828;6.466;2022-11-20T02:25:41;1.40;99.90
20376;DHT22;10347;51.828;6.466;2022-11-20T02:28:08;1.30;99.90
20376;DHT22;10347;51.828;6.466;2022-11-20T02:30:34;1.30;99.90
20376;DHT22;10347;51.828;6.466;2022-11-20T02:32:59;1.40;99.90
20376;DHT22;10347;51.828;6.466;2022-11-20T02:37:53;1.40;99.90
20376;DHT22;10347;51.828;6.466;2022-11-20T02:40:20;1.40;99.90
20376;DHT22;10347;51.828;6.466;2022-11-20T02:42:45;1.40;99.90
20376;DHT22;10347;51.828;6.466;2022-11-20T02:45:12;1.40;99.90
20376;DHT22;10347;51.828;6.466;2022-11-20T02:47:37;1.40;99.90
20376;DHT22;10347;51.828;6.466;2022-11-20T02:50:04;1.40;99.90
20376;DHT22;10347;51.828;6.466;2022-11-20T02:52:30;1.40;99.90
20376;DHT22;10347;51.828;6.466;2022-11-20T02:54:56;1.30;99.90
20376;DHT22;10347;51.828;6.466;2022-11-20T02:57:21;1.30;99.90
20376;DHT22;10347;51.828;6.466;2022-11-20T02:59:47;1.20;99.90
20376;DHT22;10347;51.828;6.466;2022-11-20T03:02:12;1.20;99.90
20376;DHT22;10347;51.828;6.466;2022-11-20T03:04:38;1.30;99.90
20376;DHT22;10347;51.828;6.466;2022-11-20T03:07:04;1.30;99.90
20376;DHT22;10347;51.828;6.466;2022-11-20T03:09:30;1.30;99.90
20376;DHT22;10347;51.828;6.466;2022-11-20T03:11:56;1.30;99.90
20376;DHT22;10347;51.828;6.466;2022-11-20T03:14:21;1.30;99.90
20376;DHT22;10347;51.828;6.466;2022-11-20T03:16:47;1.30;99.90
20376;DHT22;10347;51.828;6.466;2022-11-20T03:19:13;1.30;99.90
20376;DHT22;10347;51.828;6.466;2022-11-20T03:21:39;1.20;99.90
20376;DHT22;10347;51.828;6.466;2022-11-20T03:24:05;1.20;99.90
20376;DHT22;10347;51.828;6.466;2022-11-20T03:26:30;1.10;99.90
20376;DHT22;10347;51.828;6.466;2022-11-20T03:29:02;1.10;99.90
20376;DHT22;10347;51.828;6.466;2022-11-20T03:31:30;1.10;99.90
20376;DHT22;10347;51.828;6.466;2022-11-20T03:33:57;1.20;99.90
20376;DHT22;10347;51.828;6.466;2022-11-20T03:36:24;1.20;99.90
20376;DHT22;10347;51.828;6.466;2022-11-20T03:38:50;1.20;99.90
20376;DHT22;10347;51.828;6.466;2022-11-20T03:41:20;1.10;99.90
20376;DHT22;10347;51.828;6.466;2022-11-20T03:43:50;1.10;99.90
20376;DHT22;10347;51.828;6.466;2022-11-20T03:46:16;1.10;99.90
20376;DHT22;10347;51.828;6.466;2022-11-20T03:48:42;1.10;99.90
20376;DHT22;10347;51.828;6.466;2022-11-20T03:51:11;1.10;99.90
20376;DHT22;10347;51.828;6.466;2022-11-20T03:53:39;1.10;99.90
20376;DHT22;10347;51.828;6.466;2022-11-20T03:56:05;1.10;99.90
20376;DHT22;10347;51.828;6.466;2022-11-20T03:58:33;1.10;99.90
20376;DHT22;10347;51.828;6.466;2022-11-20T04:01:04;1.10;99.90
20376;DHT22;10347;51.828;6.466;2022-11-20T04:03:30;1.10;99.90
20376;DHT22;10347;51.828;6.466;2022-11-20T04:06:04;1.10;99.90
20376;DHT22;10347;51.828;6.466;2022-11-20T04:08:31;1.10;99.90
20376;DHT22;10347;51.828;6.466;2022-11-20T04:11:07;0.90;99.90
20376;DHT22;10347;51.828;6.466;2022-11-20T04:13:32;0.80;99.90
20376;DHT22;10347;51.828;6.466;2022-11-20T04:15:58;0.80;99.90
20376;DHT22;10347;51.828;6.466;2022-11-20T04:18:23;0.80;99.90
20376;DHT22;10347;51.828;6.466;2022-11-20T04:20:49;0.70;99.90
20376;DHT22;10347;51.828;6.466;2022-11-20T04:23:14;0.60;99.90
20376;DHT22;10347;51.828;6.466;2022-11-20T04:25:40;0.60;99.90
20376;DHT22;10347;51.828;6.466;2022-11-20T04:28:05;0.60;99.90
20376;DHT22;10347;51.828;6.466;2022-11-20T04:30:31;0.60;99.90
20376;DHT22;10347;51.828;6.466;2022-11-20T04:32:56;0.60;99.90
20376;DHT22;10347;51.828;6.466;2022-11-20T04:35:22;0.70;99.90
20376;DHT22;10347;51.828;6.466;2022-11-20T04:37:48;0.70;99.90
20376;DHT22;10347;51.828;6.466;2022-11-20T04:40:16;0.70;99.90
20376;DHT22;10347;51.828;6.466;2022-11-20T04:42:41;0.70;99.90
20376;DHT22;10347;51.828;6.466;2022-11-20T04:45:07;0.70;99.90
20376;DHT22;10347;51.828;6.466;2022-11-20T04:47:33;0.70;99.90
20376;DHT22;10347;51.828;6.466;2022-11-20T04:49:58;0.70;99.90
20376;DHT22;10347;51.828;6.466;2022-11-20T04:52:24;0.70;99.90
20376;DHT22;10347;51.828;6.466;2022-11-20T04:54:49;0.70;99.90
20376;DHT22;10347;51.828;6.466;2022-11-20T04:57:18;0.70;99.90
20376;DHT22;10347;51.828;6.466;2022-11-20T04:59:44;0.70;99.90
20376;DHT22;10347;51.828;6.466;2022-11-20T05:02:10;0.70;99.90
20376;DHT22;10347;51.828;6.466;2022-11-20T05:04:35;0.70;99.90
20376;DHT22;10347;51.828;6.466;2022-11-20T05:07:01;0.70;99.90
20376;DHT22;10347;51.828;6.466;2022-11-20T05:09:27;0.70;99.90
20376;DHT22;10347;51.828;6.466;2022-11-20T05:11:52;0.60;99.90
20376;DHT22;10347;51.828;6.466;2022-11-20T05:14:18;0.70;99.90
20376;DHT22;10347;51.828;6.466;2022-11-20T05:16:43;0.60;99.90
20376;DHT22;10347;51.828;6.466;2022-11-20T05:19:09;0.50;99.90
20376;DHT22;10347;51.828;6.466;2022-11-20T05:21:34;0.50;99.90
20376;DHT22;10347;51.828;6.466;2022-11-20T05:24:00;0.50;99.90
20376;DHT22;10347;51.828;6.466;2022-11-20T05:26:25;0.50;99.90
20376;DHT22;10347;51.828;6.466;2022-11-20T05:28:51;0.50;99.90
20376;DHT22;10347;51.828;6.466;2022-11-20T05:31:19;0.40;99.90
20376;DHT22;10347;51.828;6.466;2022-11-20T05:33:46;0.40;99.90
20376;DHT22;10347;51.828;6.466;2022-11-20T05:36:13;0.40;99.90
20376;DHT22;10347;51.828;6.466;2022-11-20T05:38:39;0.40;99.90
20376;DHT22;10347;51.828;6.466;2022-11-20T05:41:07;0.30;99.90
20376;DHT22;10347;51.828;6.466;2022-11-20T05:43:34;0.40;99.90
20376;DHT22;10347;51.828;6.466;2022-11-20T05:46:00;0.30;99.90
20376;DHT22;10347;51.828;6.466;2022-11-20T05:48:25;0.40;99.90
20376;DHT22;10347;51.828;6.466;2022-11-20T05:50:51;0.40;99.90
20376;DHT22;10347;51.828;6.466;2022-11-20T05:53:17;0.40;99.90
20376;DHT22;10347;51.828;6.466;2022-11-20T05:55:42;0.40;99.90
20376;DHT22;10347;51.828;6.466;2022-11-20T05:58:08;0.40;99.90
20376;DHT22;10347;51.828;6.466;2022-11-20T06:00:33;0.40;99.90
20376;DHT22;10347;51.828;6.466;2022-11-20T06:02:59;0.40;99.90
20376;DHT22;10347;51.828;6.466;2022-11-20T06:05:25;0.40;99.90
20376;DHT22;10347;51.828;6.466;2022-11-20T06:07:50;0.30;99.90
20376;DHT22;10347;51.828;6.466;2022-11-20T06:10:16;0.30;99.90
20376;DHT22;10347;51.828;6.466;2022-11-20T06:12:41;0.30;99.90
20376;DHT22;10347;51.828;6.466;2022-11-20T06:15:07;0.30;99.90
20376;DHT22;10347;51.828;6.466;2022-11-20T06:17:33;0.30;99.90
20376;DHT22;10347;51.828;6.466;2022-11-20T06:19:58;0.30;99.90
20376;DHT22;10347;51.828;6.466;2022-11-20T06:22:24;0.30;99.90
20376;DHT22;10347;51.828;6.466;2022-11-20T06:24:49;0.30;99.90
20376;DHT22;10347;51.828;6.466;2022-11-20T06:27:15;0.20;99.90
20376;DHT22;10347;51.828;6.466;2022-11-20T06:29:41;0.30;99.90
20376;DHT22;10347;51.828;6.466;2022-11-20T06:32:07;0.20;99.90
20376;DHT22;10347;51.828;6.466;2022-11-20T06:34:32;0.20;99.90
20376;DHT22;10347;51.828;6.466;2022-11-20T06:36:58;0.20;99.90
20376;DHT22;10347;51.828;6.466;2022-11-20T06:39:23;0.20;99.90
20376;DHT22;10347;51.828;6.466;2022-11-20T06:41:49;0.20;99.90
20376;DHT22;10347;51.828;6.466;2022-11-20T06:44:14;0.20;99.90
20376;DHT22;10347;51.828;6.466;2022-11-20T06:46:40;0.20;99.90
20376;DHT22;10347;51.828;6.466;2022-11-20T06:49:05;0.20;99.90
20376;DHT22;10347;51.828;6.466;2022-11-20T06:51:31;0.20;99.90
20376;DHT22;10347;51.828;6.466;2022-11-20T06:53:57;0.10;99.90
20376;DHT22;10347;51.828;6.466;2022-11-20T06:56:22;0.10;99.90
20376;DHT22;10347;51.828;6.466;2022-11-20T06:58:48;0.10;99.90
20376;DHT22;10347;51.828;6.466;2022-11-20T07:01:14;0.10;99.90
20376;DHT22;10347;51.828;6.466;2022-11-20T07:03:40;0.10;99.90
20376;DHT22;10347;51.828;6.466;2022-11-20T07:06:06;0.10;99.90
20376;DHT22;10347;51.828;6.466;2022-11-20T07:08:33;0.00;99.90
20376;DHT22;10347;51.828;6.466;2022-11-20T07:10:59;0.00;99.90
20376;DHT22;10347;51.828;6.466;2022-11-20T07:13:26;0.00;99.90
20376;DHT22;10347;51.828;6.466;2022-11-20T07:15:52;0.00;99.90
20376;DHT22;10347;51.828;6.466;2022-11-20T07:18:17;0.10;99.90
20376;DHT22;10347;51.828;6.466;2022-11-20T07:20:43;0.00;99.90
20376;DHT22;10347;51.828;6.466;2022-11-20T07:23:08;0.00;99.90
20376;DHT22;10347;51.828;6.466;2022-11-20T07:25:34;0.00;99.90
20376;DHT22;10347;51.828;6.466;2022-11-20T07:28:00;0.00;99.90
20376;DHT22;10347;51.828;6.466;2022-11-20T07:30:29;0.10;99.90
20376;DHT22;10347;51.828;6.466;2022-11-20T07:32:55;0.00;99.90
20376;DHT22;10347;51.828;6.466;2022-11-20T07:35:22;0.00;99.90
20376;DHT22;10347;51.828;6.466;2022-11-20T07:37:48;0.00;99.90
20376;DHT22;10347;51.828;6.466;2022-11-20T07:40:14;0.10;99.90
20376;DHT22;10347;51.828;6.466;2022-11-20T07:42:50;0.10;99.90
20376;DHT22;10347;51.828;6.466;2022-11-20T07:45:17;0.10;99.90
20376;DHT22;10347;51.828;6.466;2022-11-20T07:47:43;0.00;99.90
20376;DHT22;10347;51.828;6.466;2022-11-20T07:50:09;0.00;99.90
20376;DHT22;10347;51.828;6.466;2022-11-20T07:52:35;-0.10;99.90
20376;DHT22;10347;51.828;6.466;2022-11-20T07:55:00;-0.10;99.90
20376;DHT22;10347;51.828;6.466;2022-11-20T07:57:26;-0.10;99.90
20376;DHT22;10347;51.828;6.466;2022-11-20T07:59:51;-0.20;99.90
20376;DHT22;10347;51.828;6.466;2022-11-20T08:02:17;-0.20;99.90
20376;DHT22;10347;51.828;6.466;2022-11-20T08:04:42;-0.20;99.90
20376;DHT22;10347;51.828;6.466;2022-11-20T08:07:08;-0.20;99.90
20376;DHT22;10347;51.828;6.466;2022-11-20T08:09:33;-0.20;99.90
20376;DHT22;10347;51.828;6.466;2022-11-20T08:11:59;-0.20;99.90
20376;DHT22;10347;51.828;6.466;2022-11-20T08:14:43;-0.20;99.90
20376;DHT22;10347;51.828;6.466;2022-11-20T08:17:08;-0.20;99.90
20376;DHT22;10347;51.828;6.466;2022-11-20T08:19:34;-0.20;99.90
20376;DHT22;10347;51.828;6.466;2022-11-20T08:22:00;-0.20;99.90
20376;DHT22;10347;51.828;6.466;2022-11-20T08:24:26;-0.10;99.90
20376;DHT22;10347;51.828;6.466;2022-11-20T08:26:52;-0.20;99.90
20376;DHT22;10347;51.828;6.466;2022-11-20T08:29:18;-0.20;99.90
20376;DHT22;10347;51.828;6.466;2022-11-20T08:31:43;-0.10;99.90
20376;DHT22;10347;51.828;6.466;2022-11-20T08:34:09;-0.10;99.90
20376;DHT22;10347;51.828;6.466;2022-11-20T08:36:34;0.00;99.90
20376;DHT22;10347;51.828;6.466;2022-11-20T08:39:00;0.00;99.90
20376;DHT22;10347;51.828;6.466;2022-11-20T08:41:26;0.00;99.90
20376;DHT22;10347;51.828;6.466;2022-11-20T08:46:17;0.10;99.90
20376;DHT22;10347;51.828;6.466;2022-11-20T08:48:44;0.10;99.90
20376;DHT22;10347;51.828;6.466;2022-11-20T08:51:10;0.20;99.90
20376;DHT22;10347;51.828;6.466;2022-11-20T08:53:36;0.20;99.90
20376;DHT22;10347;51.828;6.466;2022-11-20T08:56:02;0.30;99.90
20376;DHT22;10347;51.828;6.466;2022-11-20T08:58:27;0.30;99.90
20376;DHT22;10347;51.828;6.466;2022-11-20T09:00:53;0.30;99.90
20376;DHT22;10347;51.828;6.466;2022-11-20T09:03:19;0.40;99.90
20376;DHT22;10347;51.828;6.466;2022-11-20T09:05:44;0.40;99.90
20376;DHT22;10347;51.828;6.466;2022-11-20T09:08:10;0.50;99.90
20376;DHT22;10347;51.828;6.466;2022-11-20T09:10:36;0.50;99.90
20376;DHT22;10347;51.828;6.466;2022-11-20T09:13:02;0.60;99.90
20376;DHT22;10347;51.828;6.466;2022-11-20T09:15:27;0.60;99.90
20376;DHT22;10347;51.828;6.466;2022-11-20T09:17:54;0.70;99.90
20376;DHT22;10347;51.828;6.466;2022-11-20T09:20:20;0.70;99.90
20376;DHT22;10347;51.828;6.466;2022-11-20T09:22:47;0.80;99.90
20376;DHT22;10347;51.828;6.466;2022-11-20T09:25:12;0.80;99.90
20376;DHT22;10347;51.828;6.466;2022-11-20T09:27:38;0.90;99.90
20376;DHT22;10347;51.828;6.466;2022-11-20T09:30:04;0.90;99.90
20376;DHT22;10347;51.828;6.466;2022-11-20T09:32:30;0.90;99.90
20376;DHT22;10347;51.828;6.466;2022-11-20T09:34:55;1.00;99.90
20376;DHT22;10347;51.828;6.466;2022-11-20T09:37:21;1.10;99.90
20376;DHT22;10347;51.828;6.466;2022-11-20T09:39:46;1.10;99.90
20376;DHT22;10347;51.828;6.466;2022-11-20T09:42:37;1.20;99.90
20376;DHT22;10347;51.828;6.466;2022-11-20T09:45:24;1.30;99.90
20376;DHT22;10347;51.828;6.466;2022-11-20T09:48:15;1.40;99.90
20376;DHT22;10347;51.828;6.466;2022-11-20T09:50:51;1.50;99.90
20376;DHT22;10347;51.828;6.466;2022-11-20T09:53:30;1.60;99.90
20376;DHT22;10347;51.828;6.466;2022-11-20T09:56:03;1.60;99.90
20376;DHT22;10347;51.828;6.466;2022-11-20T09:58:41;1.70;99.90
20376;DHT22;10347;51.828;6.466;2022-11-20T10:01:17;1.80;99.90
20376;DHT22;10347;51.828;6.466;2022-11-20T10:03:54;1.90;99.90
20376;DHT22;10347;51.828;6.466;2022-11-20T10:06:34;2.00;99.90
20376;DHT22;10347;51.828;6.466;2022-11-20T10:09:26;2.10;99.90
20376;DHT22;10347;51.828;6.466;2022-11-20T10:12:20;2.20;99.90
20376;DHT22;10347;51.828;6.466;2022-11-20T10:17:46;2.30;99.90
20376;DHT22;10347;51.828;6.466;2022-11-20T10:25:31;2.40;99.90
20376;DHT22;10347;51.828;6.466;2022-11-20T10:28:16;2.50;99.90
20376;DHT22;10347;51.828;6.466;2022-11-20T10:30:46;2.50;99.90
20376;DHT22;10347;51.828;6.466;2022-11-20T10:33:18;2.60;99.90
20376;DHT22;10347;51.828;6.466;2022-11-20T10:38:54;2.70;99.90
20376;DHT22;10347;51.828;6.466;2022-11-20T10:41:29;2.70;99.90
20376;DHT22;10347;51.828;6.466;2022-11-20T10:44:17;2.70;99.90
20376;DHT22;10347;51.828;6.466;2022-11-20T10:47:16;2.80;99.90
20376;DHT22;10347;51.828;6.466;2022-11-20T10:49:44;2.80;99.90
20376;DHT22;10347;51.828;6.466;2022-11-20T10:52:37;2.90;99.90
20376;DHT22;10347;51.828;6.466;2022-11-20T10:57:57;2.90;99.90
20376;DHT22;10347;51.828;6.466;2022-11-20T11:00:24;2.90;99.90
20376;DHT22;10347;51.828;6.466;2022-11-20T11:02:54;3.00;99.90
20376;DHT22;10347;51.828;6.466;2022-11-20T11:07:49;3.00;99.90
20376;DHT22;10347;51.828;6.466;2022-11-20T11:10:19;3.10;99.90
20376;DHT22;10347;51.828;6.466;2022-11-20T11:12:47;3.10;99.90
20376;DHT22;10347;51.828;6.466;2022-11-20T11:15:39;3.10;99.90
20376;DHT22;10347;51.828;6.466;2022-11-20T11:18:08;3.20;99.90
20376;DHT22;10347;51.828;6.466;2022-11-20T11:20:33;3.30;99.90
20376;DHT22;10347;51.828;6.466;2022-11-20T11:22:59;3.30;99.90
20376;DHT22;10347;51.828;6.466;2022-11-20T11:25:36;3.40;99.90
20376;DHT22;10347;51.828;6.466;2022-11-20T11:30:44;3.50;99.90
20376;DHT22;10347;51.828;6.466;2022-11-20T11:33:18;3.60;99.90
20376;DHT22;10347;51.828;6.466;2022-11-20T11:35:46;3.60;99.90
20376;DHT22;10347;51.828;6.466;2022-11-20T11:38:36;3.60;99.90
20376;DHT22;10347;51.828;6.466;2022-11-20T11:41:04;3.70;99.90
20376;DHT22;10347;51.828;6.466;2022-11-20T11:43:32;3.70;99.90
20376;DHT22;10347;51.828;6.466;2022-11-20T11:48:56;3.80;99.90
20376;DHT22;10347;51.828;6.466;2022-11-20T11:51:21;3.90;99.90
20376;DHT22;10347;51.828;6.466;2022-11-20T11:53:47;3.90;99.90
20376;DHT22;10347;51.828;6.466;2022-11-20T11:56:13;3.90;99.90
20376;DHT22;10347;51.828;6.466;2022-11-20T11:58:47;3.90;99.90
20376;DHT22;10347;51.828;6.466;2022-11-20T12:01:46;4.00;99.90
20376;DHT22;10347;51.828;6.466;2022-11-20T12:04:35;4.00;99.90
20376;DHT22;10347;51.828;6.466;2022-11-20T12:07:19;4.00;99.90
20376;DHT22;10347;51.828;6.466;2022-11-20T12:09:49;4.10;99.90
20376;DHT22;10347;51.828;6.466;2022-11-20T12:12:24;4.10;99.90
20376;DHT22;10347;51.828;6.466;2022-11-20T12:14:54;4.20;99.90
20376;DHT22;10347;51.828;6.466;2022-11-20T12:17:21;4.20;99.90
20376;DHT22;10347;51.828;6.466;2022-11-20T12:19:46;4.20;99.90
20376;DHT22;10347;51.828;6.466;2022-11-20T12:25:20;4.30;99.90
20376;DHT22;10347;51.828;6.466;2022-11-20T12:30:20;4.30;99.90
20376;DHT22;10347;51.828;6.466;2022-11-20T12:43:45;4.40;99.90
20376;DHT22;10347;51.828;6.466;2022-11-20T12:46:49;4.50;99.90
20376;DHT22;10347;51.828;6.466;2022-11-20T12:49:54;4.50;99.90
20376;DHT22;10347;51.828;6.466;2022-11-20T12:52:47;4.50;99.90
20376;DHT22;10347;51.828;6.466;2022-11-20T12:58:02;4.60;99.90
20376;DHT22;10347;51.828;6.466;2022-11-20T13:00:29;4.60;99.90
20376;DHT22;10347;51.828;6.466;2022-11-20T13:03:28;4.60;99.90
20376;DHT22;10347;51.828;6.466;2022-11-20T13:08:55;4.70;99.90
20376;DHT22;10347;51.828;6.466;2022-11-20T13:19:39;4.80;99.90
20376;DHT22;10347;51.828;6.466;2022-11-20T13:22:07;4.80;99.90
20376;DHT22;10347;51.828;6.466;2022-11-20T13:24:33;4.80;99.90
20376;DHT22;10347;51.828;6.466;2022-11-20T13:27:18;4.80;99.90
20376;DHT22;10347;51.828;6.466;2022-11-20T13:29:47;4.90;99.90
20376;DHT22;10347;51.828;6.466;2022-11-20T13:32:23;4.90;99.90
20376;DHT22;10347;51.828;6.466;2022-11-20T13:34:57;4.90;99.90
20376;DHT22;10347;51.828;6.466;2022-11-20T13:37:34;4.90;99.90
20376;DHT22;10347;51.828;6.466;2022-11-20T13:45:41;5.00;99.90
20376;DHT22;10347;51.828;6.466;2022-11-20T13:48:24;5.00;99.90
20376;DHT22;10347;51.828;6.466;2022-11-20T13:51:07;5.10;99.90
20376;DHT22;10347;51.828;6.466;2022-11-20T13:56:25;5.10;99.90
20376;DHT22;10347;51.828;6.466;2022-11-20T13:59:07;5.10;99.90
20376;DHT22;10347;51.828;6.466;2022-11-20T14:01:37;5.10;99.90
20376;DHT22;10347;51.828;6.466;2022-11-20T14:04:07;5.10;99.90
20376;DHT22;10347;51.828;6.466;2022-11-20T14:06:43;5.10;99.90
20376;DHT22;10347;51.828;6.466;2022-11-20T14:12:16;5.10;99.90
20376;DHT22;10347;51.828;6.466;2022-11-20T14:14:51;5.10;99.90
20376;DHT22;10347;51.828;6.466;2022-11-20T14:17:23;5.20;99.90
20376;DHT22;10347;51.828;6.466;2022-11-20T14:19:51;5.20;99.90
20376;DHT22;10347;51.828;6.466;2022-11-20T14:22:25;5.20;99.90
20376;DHT22;10347;51.828;6.466;2022-11-20T14:27:42;5.20;99.90
20376;DHT22;10347;51.828;6.466;2022-11-20T14:30:16;5.20;99.90
20376;DHT22;10347;51.828;6.466;2022-11-20T14:32:43;5.20;99.90
20376;DHT22;10347;51.828;6.466;2022-11-20T14:35:14;5.20;99.90
20376;DHT22;10347;51.828;6.466;2022-11-20T14:37:40;5.20;99.90
20376;DHT22;10347;51.828;6.466;2022-11-20T14:42:49;5.20;99.90
20376;DHT22;10347;51.828;6.466;2022-11-20T14:45:15;5.20;99.90
20376;DHT22;10347;51.828;6.466;2022-11-20T14:47:41;5.20;99.90
20376;DHT22;10347;51.828;6.466;2022-11-20T14:50:28;5.20;99.90
20376;DHT22;10347;51.828;6.466;2022-11-20T14:52:58;5.20;99.90
20376;DHT22;10347;51.828;6.466;2022-11-20T14:55:33;5.30;99.90
20376;DHT22;10347;51.828;6.466;2022-11-20T14:58:04;5.30;99.90
20376;DHT22;10347;51.828;6.466;2022-11-20T15:00:31;5.20;99.90
20376;DHT22;10347;51.828;6.466;2022-11-20T15:02:57;5.20;99.90
20376;DHT22;10347;51.828;6.466;2022-11-20T15:05:37;5.30;99.90
20376;DHT22;10347;51.828;6.466;2022-11-20T15:08:09;5.30;99.90
20376;DHT22;10347;51.828;6.466;2022-11-20T15:10:36;5.30;99.90
20376;DHT22;10347;51.828;6.466;2022-11-20T15:13:05;5.30;99.90
20376;DHT22;10347;51.828;6.466;2022-11-20T15:15:35;5.30;99.90
20376;DHT22;10347;51.828;6.466;2022-11-20T15:18:02;5.30;99.90
20376;DHT22;10347;51.828;6.466;2022-11-20T15:20:31;5.30;99.90
20376;DHT22;10347;51.828;6.466;2022-11-20T15:22:57;5.30;99.90
20376;DHT22;10347;51.828;6.466;2022-11-20T15:25:23;5.30;99.90
20376;DHT22;10347;51.828;6.466;2022-11-20T15:27:52;5.30;99.90
20376;DHT22;10347;51.828;6.466;2022-11-20T15:30:19;5.30;99.90
20376;DHT22;10347;51.828;6.466;2022-11-20T15:32:46;5.30;99.90
20376;DHT22;10347;51.828;6.466;2022-11-20T15:35:13;5.30;99.90
20376;DHT22;10347;51.828;6.466;2022-11-20T15:37:40;5.30;99.90
20376;DHT22;10347;51.828;6.466;2022-11-20T15:40:06;5.30;99.90
20376;DHT22;10347;51.828;6.466;2022-11-20T15:42:32;5.30;99.90
20376;DHT22;10347;51.828;6.466;2022-11-20T15:44:58;5.30;99.90
20376;DHT22;10347;51.828;6.466;2022-11-20T15:47:27;5.40;99.90
20376;DHT22;10347;51.828;6.466;2022-11-20T15:49:53;5.40;99.90
20376;DHT22;10347;51.828;6.466;2022-11-20T15:52:19;5.30;99.90
20376;DHT22;10347;51.828;6.466;2022-11-20T15:54:44;5.40;99.90
20376;DHT22;10347;51.828;6.466;2022-11-20T15:57:10;5.40;99.90
20376;DHT22;10347;51.828;6.466;2022-11-20T15:59:35;5.40;99.90
20376;DHT22;10347;51.828;6.466;2022-11-20T16:02:12;5.40;99.90
20376;DHT22;10347;51.828;6.466;2022-11-20T16:04:38;5.40;99.90
20376;DHT22;10347;51.828;6.466;2022-11-20T16:07:04;5.40;99.90
20376;DHT22;10347;51.828;6.466;2022-11-20T16:09:30;5.40;99.90
20376;DHT22;10347;51.828;6.466;2022-11-20T16:11:55;5.40;99.90
20376;DHT22;10347;51.828;6.466;2022-11-20T16:14:23;5.40;99.90
20376;DHT22;10347;51.828;6.466;2022-11-20T16:17:07;5.40;99.90
20376;DHT22;10347;51.828;6.466;2022-11-20T16:19:33;5.40;99.90
20376;DHT22;10347;51.828;6.466;2022-11-20T16:21:58;5.40;99.90
20376;DHT22;10347;51.828;6.466;2022-11-20T16:24:26;5.30;99.90
20376;DHT22;10347;51.828;6.466;2022-11-20T16:26:53;5.40;99.90
20376;DHT22;10347;51.828;6.466;2022-11-20T16:29:19;5.40;99.90
20376;DHT22;10347;51.828;6.466;2022-11-20T16:31:44;5.40;99.90
20376;DHT22;10347;51.828;6.466;2022-11-20T16:34:10;5.40;99.90
20376;DHT22;10347;51.828;6.466;2022-11-20T16:36:35;5.40;99.90
20376;DHT22;10347;51.828;6.466;2022-11-20T16:39:04;5.40;99.90
20376;DHT22;10347;51.828;6.466;2022-11-20T16:41:31;5.40;99.90
20376;DHT22;10347;51.828;6.466;2022-11-20T16:43:58;5.40;99.90
20376;DHT22;10347;51.828;6.466;2022-11-20T16:46:27;5.40;99.90
20376;DHT22;10347;51.828;6.466;2022-11-20T16:51:23;5.40;99.90
20376;DHT22;10347;51.828;6.466;2022-11-20T16:53:49;5.40;99.90
20376;DHT22;10347;51.828;6.466;2022-11-20T16:56:17;5.40;99.90
20376;DHT22;10347;51.828;6.466;2022-11-20T16:58:44;5.40;99.90
20376;DHT22;10347;51.828;6.466;2022-11-20T17:01:13;5.40;99.90
20376;DHT22;10347;51.828;6.466;2022-11-20T17:03:40;5.40;99.90
20376;DHT22;10347;51.828;6.466;2022-11-20T17:06:13;5.40;99.90
20376;DHT22;10347;51.828;6.466;2022-11-20T17:08:40;5.40;99.90
20376;DHT22;10347;51.828;6.466;2022-11-20T17:11:07;5.40;99.90
20376;DHT22;10347;51.828;6.466;2022-11-20T17:13:33;5.40;99.90
20376;DHT22;10347;51.828;6.466;2022-11-20T17:16:03;5.40;99.90
20376;DHT22;10347;51.828;6.466;2022-11-20T17:18:30;5.40;99.90